createdAt,value
2023-04-16T00:00:21.520Z,72.00
2023-04-16T00:01:26.802Z,71.95
2023-04-16T00:02:33.392Z,68.43
2023-04-16T00:03:38.988Z,71.93
2023-04-16T00:04:45.844Z,69.82
2023-04-16T00:05:51.147Z,70.90
2023-04-16T00:06:58.045Z,70.38
2023-04-16T00:08:03.447Z,67.65
2023-04-16T00:09:11.818Z,69.13
2023-04-16T00:10:17.509Z,67.68
2023-04-16T00:11:24.113Z,68.32
2023-04-16T00:12:29.435Z,69.13
2023-04-16T00:13:36.026Z,65.30
2023-04-16T00:14:41.315Z,67.10
2023-04-16T00:15:48.587Z,70.22
2023-04-16T00:16:53.918Z,67.15
2023-04-16T00:18:00.549Z,68.93
2023-04-16T00:19:05.875Z,69.90
2023-04-16T00:20:13.370Z,68.60
2023-04-16T00:21:18.774Z,65.45
2023-04-16T00:22:25.322Z,65.70
2023-04-16T00:23:30.600Z,70.13
2023-04-16T00:24:38.899Z,69.63
2023-04-16T00:25:44.693Z,69.43
2023-04-16T00:26:51.241Z,69.28
2023-04-16T00:27:56.496Z,73.10
2023-04-16T00:29:03.012Z,68.90
2023-04-16T00:30:09.343Z,68.78
2023-04-16T00:31:15.961Z,71.07
2023-04-16T00:32:21.302Z,66.63
2023-04-16T00:33:28.254Z,68.65
2023-04-16T00:34:33.468Z,68.35
2023-04-16T00:35:42.742Z,67.70
2023-04-16T00:36:48.003Z,69.07
2023-04-16T00:37:54.617Z,68.13
2023-04-16T00:39:00.048Z,67.50
2023-04-16T00:40:08.868Z,65.47
2023-04-16T00:41:14.176Z,65.30
2023-04-16T00:42:20.728Z,64.22
2023-04-16T00:43:27.227Z,62.63
2023-04-16T00:44:36.415Z,63.20
2023-04-16T00:45:41.699Z,64.68
2023-04-16T00:46:48.564Z,66.33
2023-04-16T00:47:53.888Z,65.72
2023-04-16T00:49:00.783Z,64.65
2023-04-16T00:50:06.828Z,65.95
2023-04-16T00:51:13.462Z,63.10
2023-04-16T00:52:18.798Z,62.58
2023-04-16T00:53:25.448Z,60.88
2023-04-16T00:54:31.102Z,60.55
2023-04-16T00:55:39.373Z,60.72
2023-04-16T00:56:44.572Z,67.35
2023-04-16T00:57:51.107Z,62.57
2023-04-16T00:58:58.091Z,64.95
2023-04-16T01:00:05.067Z,61.35
2023-04-16T01:01:10.434Z,63.67
2023-04-16T01:02:17.333Z,61.42
2023-04-16T01:03:22.845Z,61.35
2023-04-16T01:04:31.343Z,60.88
2023-04-16T01:05:36.627Z,60.17
2023-04-16T01:06:43.108Z,59.97
2023-04-16T01:07:48.303Z,61.58
2023-04-16T01:08:54.868Z,59.23
2023-04-16T01:10:00.205Z,59.75
2023-04-16T01:11:08.626Z,60.20
2023-04-16T01:12:13.847Z,59.10
2023-04-16T01:13:20.369Z,58.85
2023-04-16T01:14:25.622Z,60.22
2023-04-16T01:15:32.278Z,60.72
2023-04-16T01:16:38.101Z,63.50
2023-04-16T01:17:44.676Z,63.20
2023-04-16T01:18:52.152Z,60.28
2023-04-16T01:19:58.802Z,60.70
